Time;durP1;ratioP1;P1;durP2;ratioP2;P2;SDS_P1;SDS_P2;PMS_P1;PMS_P2;Temp;Humidity;BMP_temperature;BMP_pressure;BME280_temperature;BME280_humidity;BME280_pressure;Samples;Min_cycle;Max_cycle;Signal;HPM_P1;HPM_P2
2022/09/20 00:01:13;;;;;;;9.32;0.75;;;11.80;99.90;;;;;;5010636;28;20083;-74
2022/09/20 00:03:41;;;;;;;7.65;0.90;;;11.80;99.90;;;;;;5014946;28;20367;-74
2022/09/20 00:06:10;;;;;;;7.80;0.80;;;11.80;99.90;;;;;;5017447;28;20034;-74
2022/09/20 00:08:37;;;;;;;8.70;0.90;;;11.80;99.90;;;;;;5009476;28;20038;-74
2022/09/20 00:11:14;;;;;;;6.78;1.00;;;11.80;99.90;;;;;;5010460;28;20041;-74
2022/09/20 00:13:40;;;;;;;21.48;2.10;;;11.80;99.90;;;;;;5018555;28;20072;-74
2022/09/20 00:16:09;;;;;;;8.15;1.00;;;11.80;99.90;;;;;;5012771;28;20026;-74
2022/09/20 00:18:35;;;;;;;9.55;1.20;;;11.80;99.90;;;;;;5013802;28;20025;-74
2022/09/20 00:21:01;;;;;;;9.75;0.90;;;11.80;99.90;;;;;;5000420;28;20113;-74
2022/09/20 00:23:29;;;;;;;8.40;1.30;;;11.80;99.90;;;;;;5007750;28;20100;-74
2022/09/20 00:25:59;;;;;;;8.75;1.55;;;11.80;99.90;;;;;;5014899;28;20036;-74
2022/09/20 00:28:26;;;;;;;8.77;1.13;;;11.70;99.90;;;;;;5014329;28;20163;-75
2022/09/20 00:30:53;;;;;;;6.38;1.05;;;11.60;99.90;;;;;;5012070;28;20046;-73
2022/09/20 00:33:19;;;;;;;5.15;0.70;;;11.60;99.90;;;;;;5011730;28;20033;-74
2022/09/20 00:35:45;;;;;;;6.70;0.90;;;11.60;99.90;;;;;;5024100;28;20021;-74
2022/09/20 00:38:12;;;;;;;9.77;1.10;;;11.60;99.90;;;;;;5009912;28;20601;-74
2022/09/20 00:40:39;;;;;;;11.80;1.00;;;11.50;99.90;;;;;;5017129;28;20030;-74
2022/09/20 00:43:04;;;;;;;7.78;0.80;;;11.50;99.90;;;;;;5010284;28;20026;-74
2022/09/20 00:45:30;;;;;;;8.23;1.40;;;11.50;99.90;;;;;;5012804;28;20040;-74
2022/09/20 00:48:14;;;;;;;5.68;0.60;;;11.50;99.90;;;;;;5008820;28;20367;-75
2022/09/20 00:50:51;;;;;;;6.15;0.63;;;11.50;99.90;;;;;;5017035;28;20026;-74
2022/09/20 00:53:21;;;;;;;8.45;0.90;;;11.50;99.90;;;;;;5009706;28;20045;-74
2022/09/20 00:56:00;;;;;;;7.85;0.90;;;11.40;99.90;;;;;;5006084;28;20026;-74
2022/09/20 00:58:29;;;;;;;8.43;0.88;;;11.40;99.90;;;;;;5012872;28;20547;-74
2022/09/20 01:00:56;;;;;;;7.13;0.90;;;11.40;99.90;;;;;;5010783;28;20033;-74
2022/09/20 01:03:26;;;;;;;10.30;1.65;;;11.40;99.90;;;;;;5011556;28;20071;-74
2022/09/20 01:05:53;;;;;;;10.40;0.90;;;11.40;99.90;;;;;;5014656;28;20117;-74
2022/09/20 01:08:20;;;;;;;9.02;0.57;;;11.40;99.90;;;;;;5006804;28;20034;-74
2022/09/20 01:10:46;;;;;;;7.72;0.70;;;11.40;99.90;;;;;;5005608;28;20050;-74
2022/09/20 01:13:11;;;;;;;10.65;0.90;;;11.40;99.90;;;;;;5011359;28;20119;-74
2022/09/20 01:15:39;;;;;;;6.68;0.90;;;11.40;99.90;;;;;;5012989;28;20026;-74
2022/09/20 01:18:06;;;;;;;6.35;1.17;;;11.50;99.90;;;;;;5013393;28;20030;-74
2022/09/20 01:20:38;;;;;;;8.80;1.20;;;11.40;99.90;;;;;;5022329;28;20022;-75
2022/09/20 01:23:25;;;;;;;5.82;1.45;;;11.30;99.90;;;;;;5018287;28;20041;-74
2022/09/20 01:26:24;;;;;;;16.88;1.80;;;11.30;99.90;;;;;;5009816;28;20443;-74
2022/09/20 01:29:01;;;;;;;4.47;1.30;;;11.20;99.90;;;;;;5011797;28;20038;-74
2022/09/20 01:31:39;;;;;;;7.05;1.58;;;11.30;99.90;;;;;;5014012;28;20121;-75
2022/09/20 01:34:13;;;;;;;11.50;1.50;;;11.20;99.90;;;;;;5012830;28;20029;-74
2022/09/20 01:36:53;;;;;;;6.97;1.90;;;11.20;99.90;;;;;;5006542;28;20029;-74
2022/09/20 01:39:39;;;;;;;10.40;1.60;;;11.10;99.90;;;;;;5001314;28;20036;-74
2022/09/20 01:42:10;;;;;;;10.02;1.60;;;11.10;99.90;;;;;;5004773;28;20058;-75
2022/09/20 01:44:41;;;;;;;5.80;1.60;;;11.10;99.90;;;;;;5018760;28;20025;-74
2022/09/20 01:47:26;;;;;;;7.80;1.63;;;11.10;99.90;;;;;;5024502;28;20061;-74
2022/09/20 01:50:04;;;;;;;9.77;1.70;;;11.10;99.90;;;;;;5005321;28;20721;-74
2022/09/20 01:52:56;;;;;;;7.07;1.30;;;11.10;99.90;;;;;;5028406;28;20629;-74
2022/09/20 01:55:39;;;;;;;7.70;1.92;;;11.10;99.90;;;;;;5016970;28;20025;-74
2022/09/20 01:58:16;;;;;;;6.45;1.88;;;11.00;99.90;;;;;;5006241;28;20075;-75
2022/09/20 02:00:48;;;;;;;5.63;1.75;;;11.00;99.90;;;;;;5016533;28;20026;-74
2022/09/20 02:03:58;;;;;;;6.37;1.70;;;11.00;99.90;;;;;;5007756;28;20313;-74
2022/09/20 02:06:56;;;;;;;14.63;2.60;;;11.00;99.90;;;;;;5010936;28;20393;-74
2022/09/20 02:09:48;;;;;;;7.82;1.77;;;11.00;99.90;;;;;;5003850;28;20026;-74
2022/09/20 02:12:39;;;;;;;5.80;1.90;;;11.00;99.90;;;;;;5004101;28;20634;-74
2022/09/20 02:15:32;;;;;;;10.52;1.88;;;11.00;99.90;;;;;;5011514;28;20022;-74
2022/09/20 02:18:32;;;;;;;12.82;2.35;;;11.00;99.90;;;;;;5011124;28;20493;-74
2022/09/20 02:21:12;;;;;;;7.68;2.10;;;11.00;99.90;;;;;;5009796;28;20037;-74
2022/09/20 02:23:56;;;;;;;10.25;2.22;;;11.00;99.90;;;;;;5008840;28;20414;-75
2022/09/20 02:26:40;;;;;;;9.27;2.75;;;11.00;99.90;;;;;;5010707;28;20390;-74
2022/09/20 02:29:21;;;;;;;7.68;2.60;;;11.00;99.90;;;;;;5002583;28;20394;-74
2022/09/20 02:32:10;;;;;;;8.65;2.47;;;11.00;99.90;;;;;;5004758;28;20049;-74
2022/09/20 02:34:53;;;;;;;10.00;2.17;;;11.00;99.90;;;;;;5014992;28;20026;-74
2022/09/20 02:37:42;;;;;;;11.65;2.25;;;11.10;99.90;;;;;;5011243;28;20037;-74
2022/09/20 02:40:41;;;;;;;7.75;2.05;;;11.10;99.90;;;;;;5005766;28;20418;-74
2022/09/20 02:43:24;;;;;;;8.02;2.47;;;11.10;99.90;;;;;;5008590;28;20088;-74
2022/09/20 02:46:00;;;;;;;11.77;2.95;;;11.10;99.90;;;;;;5011608;28;20029;-74
2022/09/20 02:48:41;;;;;;;8.55;2.90;;;11.10;99.90;;;;;;5005362;28;20022;-74
2022/09/20 02:51:12;;;;;;;9.60;2.88;;;11.00;99.90;;;;;;5004779;28;20076;-74
2022/09/20 02:54:12;;;;;;;8.93;2.38;;;11.00;99.90;;;;;;5003910;28;20496;-74
2022/09/20 02:57:03;;;;;;;10.05;3.38;;;11.00;99.90;;;;;;5020169;28;20486;-74
2022/09/20 02:59:52;;;;;;;11.18;2.90;;;11.00;99.90;;;;;;5007251;28;20368;-74
2022/09/20 03:02:36;;;;;;;8.52;2.53;;;11.00;99.90;;;;;;5012877;28;20121;-75
2022/09/20 03:05:45;;;;;;;13.68;3.20;;;11.00;99.90;;;;;;5006167;28;20053;-74
2022/09/20 03:08:31;;;;;;;12.10;3.17;;;10.90;99.90;;;;;;5001632;28;20030;-74
2022/09/20 03:11:24;;;;;;;12.13;2.92;;;10.90;99.90;;;;;;5010483;28;20050;-73
2022/09/20 03:14:08;;;;;;;7.35;3.15;;;10.90;99.90;;;;;;5007157;28;20097;-74
2022/09/20 03:16:57;;;;;;;16.92;3.60;;;10.90;99.90;;;;;;5015089;28;20410;-74
2022/09/20 03:20:00;;;;;;;12.75;3.17;;;10.90;99.90;;;;;;5008610;28;20040;-75
2022/09/20 03:22:31;;;;;;;12.10;3.03;;;10.90;99.90;;;;;;5006068;28;20428;-75
2022/09/20 03:25:36;;;;;;;8.70;3.15;;;10.80;99.90;;;;;;5011027;28;20072;-76
2022/09/20 03:28:31;;;;;;;11.63;3.10;;;10.80;99.90;;;;;;5003530;28;20038;-75
2022/09/20 03:31:31;;;;;;;11.13;3.50;;;10.80;99.90;;;;;;5009913;28;20092;-75
2022/09/20 03:34:46;;;;;;;11.05;2.22;;;10.80;99.90;;;;;;5009562;28;20044;-75
2022/09/20 03:37:21;;;;;;;7.63;2.40;;;10.70;99.90;;;;;;5002906;28;20223;-75
2022/09/20 03:40:19;;;;;;;8.65;2.50;;;10.70;99.90;;;;;;4997656;28;20038;-75
2022/09/20 03:42:47;;;;;;;9.10;2.60;;;10.70;99.90;;;;;;5006303;28;20073;-75
2022/09/20 03:45:38;;;;;;;7.65;2.08;;;10.70;99.90;;;;;;5013413;28;20021;-75
2022/09/20 03:48:36;;;;;;;9.80;2.45;;;10.70;99.90;;;;;;5005073;28;20026;-75
2022/09/20 03:51:11;;;;;;;16.83;2.78;;;10.70;99.90;;;;;;5012783;28;20037;-75
2022/09/20 03:53:56;;;;;;;10.07;2.35;;;10.60;99.90;;;;;;5011041;28;20041;-75
2022/09/20 03:56:42;;;;;;;7.05;2.42;;;10.50;99.90;;;;;;5013847;28;20041;-75
2022/09/20 03:59:41;;;;;;;9.82;2.78;;;10.60;99.90;;;;;;5011034;28;20497;-75
2022/09/20 04:02:36;;;;;;;10.80;2.17;;;10.60;99.90;;;;;;5003405;28;20077;-75
2022/09/20 04:05:30;;;;;;;7.65;1.90;;;10.60;99.90;;;;;;5032564;28;20508;-76
2022/09/20 04:08:37;;;;;;;6.05;1.80;;;10.60;99.90;;;;;;5006349;28;20096;-75
2022/09/20 04:11:23;;;;;;;8.85;2.10;;;10.60;99.90;;;;;;5016601;28;20040;-73
2022/09/20 04:14:09;;;;;;;6.18;1.80;;;10.60;99.90;;;;;;5012174;28;20030;-74
2022/09/20 04:16:34;;;;;;;8.25;2.55;;;10.60;99.90;;;;;;5016723;28;20034;-74
2022/09/20 04:19:13;;;;;;;9.82;2.10;;;10.60;99.90;;;;;;5017072;28;20029;-74
2022/09/20 04:21:43;;;;;;;7.93;1.52;;;10.60;99.90;;;;;;5012245;28;20503;-74
2022/09/20 04:24:33;;;;;;;7.78;2.20;;;10.60;99.90;;;;;;5015189;28;20375;-73
2022/09/20 04:27:19;;;;;;;9.27;1.67;;;10.60;99.90;;;;;;5018153;28;20030;-74
2022/09/20 04:30:16;;;;;;;8.18;1.77;;;10.70;99.90;;;;;;5010033;28;20053;-74
2022/09/20 04:32:50;;;;;;;6.40;1.80;;;10.60;99.90;;;;;;5018862;28;20037;-74
2022/09/20 04:38:28;;;;;;;12.60;2.15;;;10.60;99.90;;;;;;5004500;28;20172;-74
2022/09/20 04:41:32;;;;;;;12.48;2.90;;;10.60;99.90;;;;;;5006520;28;20502;-73
2022/09/20 04:44:21;;;;;;;4.85;1.88;;;10.50;99.90;;;;;;5005830;28;20474;-74
2022/09/20 04:47:14;;;;;;;13.85;2.25;;;10.50;99.90;;;;;;5005369;28;20025;-74
2022/09/20 04:49:52;;;;;;;10.70;1.70;;;10.50;99.90;;;;;;5005536;28;20512;-74
2022/09/20 04:52:27;;;;;;;13.07;2.40;;;10.40;99.90;;;;;;5005768;28;21928;-74
2022/09/20 04:54:58;;;;;;;12.60;2.30;;;10.30;99.90;;;;;;5004653;28;20057;-74
2022/09/20 04:57:49;;;;;;;5.57;1.63;;;10.30;99.90;;;;;;5004643;28;20030;-74
2022/09/20 05:00:19;;;;;;;8.57;2.08;;;10.20;99.90;;;;;;5020027;28;20284;-74
2022/09/20 05:03:24;;;;;;;11.13;2.63;;;10.10;99.90;;;;;;5010716;28;20022;-73
2022/09/20 05:06:43;;;;;;;7.28;2.00;;;10.10;99.90;;;;;;5005280;28;20041;-74
2022/09/20 05:09:53;;;;;;;8.90;2.05;;;10.00;99.90;;;;;;5013746;28;20030;-74
2022/09/20 05:12:54;;;;;;;8.57;2.17;;;9.90;99.90;;;;;;5002079;28;20053;-73
2022/09/20 05:15:42;;;;;;;9.82;1.85;;;9.90;99.90;;;;;;5008455;28;20029;-73
2022/09/20 05:18:44;;;;;;;5.82;1.70;;;9.80;99.90;;;;;;5012923;28;20538;-74
2022/09/20 05:21:43;;;;;;;6.15;1.80;;;9.70;99.90;;;;;;5011660;28;20030;-74
2022/09/20 05:24:37;;;;;;;5.93;2.00;;;9.70;99.90;;;;;;5007135;28;20026;-74
2022/09/20 05:27:30;;;;;;;13.57;2.17;;;9.70;99.90;;;;;;5012720;28;20037;-75
2022/09/20 05:30:12;;;;;;;;;;;9.60;99.90;;;;;;5011984;28;20052;-75
2022/09/20 05:33:04;;;;;;;6.93;1.42;;;9.50;99.90;;;;;;5012539;28;20268;-74
2022/09/20 05:35:55;;;;;;;4.30;1.55;;;9.40;99.90;;;;;;5010479;28;20064;-74
2022/09/20 05:38:35;;;;;;;6.95;1.80;;;9.40;99.90;;;;;;5008261;28;20032;-73
2022/09/20 05:41:09;;;;;;;7.68;2.10;;;9.30;99.90;;;;;;5008894;28;20080;-75
2022/09/20 05:43:49;;;;;;;10.77;1.95;;;9.30;99.90;;;;;;5012097;28;20037;-74
2022/09/20 05:46:56;;;;;;;8.40;2.15;;;9.30;99.90;;;;;;5017726;28;20061;-74
2022/09/20 05:50:03;;;;;;;5.97;2.65;;;9.20;99.90;;;;;;5015568;28;20071;-76
2022/09/20 05:53:06;;;;;;;8.40;2.40;;;9.20;99.90;;;;;;4972491;28;20104;-76
2022/09/20 05:55:53;;;;;;;;;;;9.20;99.90;;;;;;4990558;28;20045;-75
2022/09/20 05:59:04;;;;;;;8.77;2.42;;;9.30;99.90;;;;;;5001055;28;19925;-75
2022/09/20 06:01:32;;;;;;;9.05;2.65;;;9.30;99.90;;;;;;5004067;28;20486;-75
2022/09/20 06:04:18;;;;;;;6.95;2.28;;;9.40;99.90;;;;;;5007318;28;20037;-75
2022/09/20 06:07:01;;;;;;;11.68;2.78;;;9.40;99.90;;;;;;5010694;28;20034;-75
2022/09/20 06:10:06;;;;;;;8.30;2.50;;;9.50;99.90;;;;;;5007015;28;20018;-76
2022/09/20 06:12:46;;;;;;;7.53;3.75;;;9.60;99.90;;;;;;5004868;28;21850;-75
2022/09/20 06:15:43;;;;;;;8.90;2.78;;;9.70;99.90;;;;;;5009114;28;20103;-76
2022/09/20 06:18:15;;;;;;;7.25;2.67;;;9.80;99.90;;;;;;5008278;28;20129;-75
2022/09/20 06:21:14;;;;;;;8.93;3.60;;;10.00;99.90;;;;;;5007745;28;20739;-75
2022/09/20 06:23:40;;;;;;;14.77;4.28;;;10.20;99.90;;;;;;5005884;28;20488;-75
2022/09/20 06:26:22;;;;;;;8.60;3.20;;;10.40;99.90;;;;;;5007462;28;20177;-75
2022/09/20 06:28:59;;;;;;;15.10;4.03;;;10.60;99.90;;;;;;4994787;28;20030;-75
2022/09/20 06:31:25;;;;;;;10.02;3.88;;;10.70;99.90;;;;;;5006393;28;20821;-75
2022/09/20 06:34:02;;;;;;;11.30;3.83;;;10.80;99.90;;;;;;5012068;28;20026;-75
2022/09/20 06:42:12;;;;;;;15.27;4.18;;;11.00;99.90;;;;;;5006894;28;20044;-75
2022/09/20 06:44:40;;;;;;;10.70;3.60;;;11.00;99.90;;;;;;5008713;28;20452;-75
2022/09/20 06:47:08;;;;;;;11.98;4.05;;;11.00;99.90;;;;;;5026468;28;20116;-74
2022/09/20 06:49:34;;;;;;;8.80;4.05;;;11.10;99.90;;;;;;5011396;28;20080;-75
2022/09/20 06:52:04;;;;;;;14.65;4.72;;;11.20;99.90;;;;;;5008991;28;20038;-74
2022/09/20 06:54:30;;;;;;;9.77;3.90;;;11.30;99.90;;;;;;5017841;28;20026;-75
2022/09/20 06:56:56;;;;;;;8.18;3.83;;;11.40;99.90;;;;;;5009647;28;20026;-75
2022/09/20 06:59:22;;;;;;;12.15;3.78;;;11.50;99.90;;;;;;5010376;28;20071;-75
2022/09/20 07:01:48;;;;;;;8.95;3.53;;;11.60;99.90;;;;;;5009290;28;20030;-74
2022/09/20 07:04:17;;;;;;;11.63;4.22;;;11.70;99.90;;;;;;5002649;28;20041;-75
2022/09/20 07:06:42;;;;;;;15.95;4.30;;;11.80;99.90;;;;;;5008321;28;20028;-75
2022/09/20 07:09:10;;;;;;;11.48;4.20;;;11.90;99.90;;;;;;5008547;28;20030;-76
2022/09/20 07:11:36;;;;;;;11.05;4.57;;;12.10;99.90;;;;;;5022625;28;20083;-75
2022/09/20 07:14:02;;;;;;;11.25;4.50;;;12.20;99.90;;;;;;5006814;28;20542;-75
2022/09/20 07:16:28;;;;;;;10.68;4.82;;;12.30;99.90;;;;;;5007889;28;20060;-75
2022/09/20 07:18:55;;;;;;;12.20;4.90;;;12.30;99.90;;;;;;5008980;28;20042;-75
2022/09/20 07:21:21;;;;;;;10.30;3.92;;;12.40;99.90;;;;;;5009554;28;20152;-75
2022/09/20 07:23:50;;;;;;;12.52;4.30;;;12.50;99.90;;;;;;5008578;28;20113;-75
2022/09/20 07:26:19;;;;;;;17.67;4.57;;;12.70;99.90;;;;;;5007178;28;20031;-75
2022/09/20 07:28:45;;;;;;;10.65;4.45;;;12.80;99.90;;;;;;4995208;28;20037;-75
2022/09/20 07:31:11;;;;;;;7.53;3.55;;;12.90;99.90;;;;;;5009874;28;20375;-75
2022/09/20 07:33:37;;;;;;;9.65;3.55;;;13.00;99.90;;;;;;5010182;28;20115;-75
2022/09/20 07:36:03;;;;;;;6.10;2.88;;;13.10;99.90;;;;;;5010131;28;20544;-76
2022/09/20 07:38:29;;;;;;;8.80;3.25;;;13.20;99.90;;;;;;5009360;28;20125;-75
2022/09/20 07:40:59;;;;;;;11.02;3.53;;;13.10;99.90;;;;;;5012080;28;20050;-74
2022/09/20 07:43:25;;;;;;;6.03;3.03;;;13.20;99.90;;;;;;5008445;28;20030;-74
2022/09/20 07:45:55;;;;;;;7.35;3.08;;;13.20;99.90;;;;;;5007487;28;20068;-74
2022/09/20 07:48:30;;;;;;;9.18;2.85;;;13.20;99.90;;;;;;5010807;28;20021;-75
2022/09/20 07:51:02;;;;;;;9.18;2.83;;;13.30;99.90;;;;;;5009827;28;20034;-76
2022/09/20 07:53:28;;;;;;;7.05;2.42;;;13.30;99.90;;;;;;5015819;28;20436;-76
2022/09/20 07:56:01;;;;;;;11.75;2.55;;;13.30;99.90;;;;;;5008608;28;20122;-75
2022/09/20 07:58:29;;;;;;;9.13;2.40;;;13.40;99.90;;;;;;5007781;28;20088;-75
2022/09/20 08:01:00;;;;;;;7.07;2.28;;;13.40;99.90;;;;;;5015394;28;20556;-75
2022/09/20 08:03:29;;;;;;;6.82;2.20;;;13.50;99.90;;;;;;5004266;28;20474;-75
2022/09/20 08:06:03;;;;;;;8.00;2.60;;;13.50;99.90;;;;;;5006893;28;20053;-75
2022/09/20 08:08:35;;;;;;;10.25;2.50;;;13.60;99.90;;;;;;5005883;28;20041;-75
2022/09/20 08:11:24;;;;;;;9.13;2.15;;;13.60;99.90;;;;;;5008951;28;20036;-75
2022/09/20 08:13:51;;;;;;;9.90;2.08;;;13.60;99.90;;;;;;5009196;28;20088;-74
2022/09/20 08:16:18;;;;;;;8.73;2.53;;;13.60;99.90;;;;;;5008883;28;20022;-73
2022/09/20 08:18:50;;;;;;;12.93;3.00;;;13.60;99.90;;;;;;5007845;28;20061;-72
2022/09/20 08:21:15;;;;;;;7.55;2.03;;;13.60;99.90;;;;;;5009801;28;20343;-72
2022/09/20 08:23:43;;;;;;;8.07;1.77;;;13.70;99.90;;;;;;5008023;28;20044;-73
2022/09/20 08:26:11;;;;;;;10.70;2.97;;;13.90;99.90;;;;;;5009027;28;20458;-73
2022/09/20 08:28:38;;;;;;;11.75;3.00;;;14.10;99.90;;;;;;5009312;28;20084;-73
2022/09/20 08:31:06;;;;;;;11.13;2.58;;;14.30;99.90;;;;;;5007780;28;20543;-73
2022/09/20 08:33:33;;;;;;;9.43;1.50;;;14.40;99.90;;;;;;5000621;28;20056;-73
2022/09/20 08:35:59;;;;;;;5.78;0.88;;;14.50;99.90;;;;;;5008111;28;20481;-74
2022/09/20 08:38:26;;;;;;;6.10;0.95;;;14.60;99.90;;;;;;5010776;28;20066;-73
2022/09/20 08:41:37;;;;;;;7.75;1.00;;;14.60;99.90;;;;;;5008555;28;20394;-73
2022/09/20 08:44:15;;;;;;;8.52;0.93;;;14.60;99.90;;;;;;4996723;28;20505;-73
2022/09/20 08:46:48;;;;;;;8.23;0.80;;;14.60;99.90;;;;;;5004676;28;20037;-74
2022/09/20 08:49:22;;;;;;;;;;;14.60;99.90;;;;;;5014258;28;20117;-73
2022/09/20 08:51:49;;;;;;;6.80;0.63;;;14.60;99.90;;;;;;5012271;28;19917;-73
2022/09/20 08:54:15;;;;;;;3.03;0.43;;;14.70;99.90;;;;;;5011452;28;20096;-74
2022/09/20 08:56:47;;;;;;;7.28;0.60;;;14.60;99.90;;;;;;5013701;28;20030;-73
2022/09/20 08:59:17;;;;;;;7.87;0.57;;;14.60;99.90;;;;;;5010738;28;20084;-74
2022/09/20 09:01:43;;;;;;;5.07;0.50;;;14.50;99.90;;;;;;5012484;28;20042;-73
2022/09/20 09:04:22;;;;;;;6.05;1.15;;;14.40;99.90;;;;;;5007650;28;20052;-74
2022/09/20 09:06:49;;;;;;;6.70;0.40;;;14.30;99.90;;;;;;5011205;28;20351;-74
2022/09/20 09:09:19;;;;;;;4.63;0.30;;;14.30;99.90;;;;;;5012381;28;20040;-73
2022/09/20 09:11:47;;;;;;;3.90;0.30;;;14.20;99.90;;;;;;5004216;28;20038;-74
2022/09/20 09:14:47;;;;;;;4.10;0.30;;;14.10;99.90;;;;;;5011989;28;20026;-74
2022/09/20 09:17:15;;;;;;;1.77;0.20;;;14.10;99.90;;;;;;5012764;28;20030;-73
2022/09/20 09:19:49;;;;;;;2.67;0.20;;;14.00;99.90;;;;;;5009168;28;20117;-74
2022/09/20 09:22:36;;;;;;;3.70;0.20;;;14.00;99.90;;;;;;5014223;28;20101;-74
2022/09/20 09:25:31;;;;;;;2.75;0.30;;;14.10;99.90;;;;;;5011232;28;20300;-74
2022/09/20 09:28:11;;;;;;;2.67;0.20;;;14.20;99.90;;;;;;5009123;28;20610;-74
2022/09/20 09:30:39;;;;;;;5.90;0.20;;;14.30;99.90;;;;;;5009329;28;20046;-74
2022/09/20 09:33:28;;;;;;;4.47;0.30;;;14.30;99.90;;;;;;5010249;28;20034;-74
2022/09/20 09:36:03;;;;;;;5.68;0.30;;;14.30;99.90;;;;;;5012500;28;20076;-73
2022/09/20 09:38:35;;;;;;;5.05;0.25;;;14.40;99.90;;;;;;5009845;28;20033;-74
2022/09/20 09:41:04;;;;;;;4.70;0.22;;;14.40;99.90;;;;;;5014046;28;20041;-74
2022/09/20 09:43:34;;;;;;;1.83;0.28;;;14.40;99.90;;;;;;5013081;28;20033;-73
2022/09/20 09:46:17;;;;;;;3.83;0.30;;;14.40;99.90;;;;;;5014625;28;20025;-74
2022/09/20 09:48:48;;;;;;;7.85;0.40;;;14.40;99.90;;;;;;5013919;28;20088;-74
2022/09/20 09:51:19;;;;;;;7.10;0.30;;;14.40;99.90;;;;;;5016070;28;20048;-74
2022/09/20 09:53:48;;;;;;;4.05;0.30;;;14.40;99.90;;;;;;5016083;28;20045;-74
2022/09/20 09:56:39;;;;;;;7.25;0.30;;;14.50;99.90;;;;;;5017456;28;20104;-74
2022/09/20 09:59:35;;;;;;;4.05;0.30;;;14.60;99.90;;;;;;5005513;28;20114;-74
2022/09/20 10:02:11;;;;;;;1.45;0.22;;;14.70;99.90;;;;;;5014879;28;20045;-75
2022/09/20 10:05:00;;;;;;;3.83;0.25;;;14.80;99.90;;;;;;5011131;28;20030;-76
2022/09/20 10:07:45;;;;;;;7.20;0.50;;;15.00;99.90;;;;;;5007814;28;20032;-75
2022/09/20 10:10:40;;;;;;;1.88;0.20;;;15.10;99.90;;;;;;5013865;28;20029;-75
2022/09/20 10:13:27;;;;;;;4.38;0.30;;;15.10;99.90;;;;;;5014832;28;20034;-75
2022/09/20 10:16:12;;;;;;;4.90;0.95;;;15.10;99.90;;;;;;5006965;28;20026;-74
2022/09/20 10:18:59;;;;;;;3.30;0.20;;;15.20;99.90;;;;;;5022845;28;20197;-74
2022/09/20 10:21:35;;;;;;;2.38;0.20;;;15.20;99.90;;;;;;5007745;28;20026;-75
2022/09/20 10:24:12;;;;;;;1.40;0.20;;;15.30;99.90;;;;;;5005028;28;20080;-75
2022/09/20 10:26:57;;;;;;;4.45;0.28;;;15.40;99.90;;;;;;5003934;28;20022;-75
2022/09/20 10:29:41;;;;;;;2.55;0.20;;;15.50;99.90;;;;;;5004580;28;20402;-75
2022/09/20 10:32:19;;;;;;;2.35;0.20;;;15.60;99.90;;;;;;5003272;28;20056;-74
2022/09/20 10:35:04;;;;;;;4.07;0.17;;;15.80;99.90;;;;;;5004431;28;20022;-75
2022/09/20 10:38:08;;;;;;;1.35;0.10;;;16.00;99.90;;;;;;5006873;28;20037;-76
2022/09/20 10:44:11;;;;;;;3.80;0.32;;;16.30;99.90;;;;;;4995449;28;20080;-74
2022/09/20 10:47:12;;;;;;;1.70;0.20;;;16.40;99.90;;;;;;5011418;28;20385;-77
2022/09/20 10:49:45;;;;;;;4.68;0.90;;;16.30;99.90;;;;;;5010210;28;20034;-74
2022/09/20 10:52:48;;;;;;;2.80;0.38;;;16.40;99.90;;;;;;5002969;28;20120;-76
2022/09/20 10:55:34;;;;;;;2.33;0.20;;;16.40;99.90;;;;;;5006290;28;20034;-73
2022/09/20 10:58:34;;;;;;;3.83;0.30;;;16.40;99.90;;;;;;5006235;28;20072;-73
2022/09/20 11:01:16;;;;;;;2.53;0.30;;;16.60;99.90;;;;;;5010859;28;20038;-74
2022/09/20 11:04:06;;;;;;;0.85;0.10;;;16.70;99.90;;;;;;5008355;28;20028;-74
2022/09/20 11:07:08;;;;;;;1.88;0.10;;;16.80;99.90;;;;;;5007306;28;20029;-74
2022/09/20 11:09:39;;;;;;;1.87;0.10;;;16.70;99.90;;;;;;5006307;28;20026;-74
2022/09/20 11:12:24;;;;;;;3.95;0.30;;;16.60;99.90;;;;;;5010709;28;20080;-73
2022/09/20 11:15:03;;;;;;;3.65;0.20;;;16.60;99.90;;;;;;5005837;28;20022;-74
2022/09/20 11:17:37;;;;;;;7.00;0.20;;;16.60;99.90;;;;;;5011140;28;20022;-74
2022/09/20 11:20:28;;;;;;;2.58;0.20;;;16.50;99.90;;;;;;5010657;28;20034;-74
2022/09/20 11:23:22;;;;;;;3.92;0.20;;;16.40;99.90;;;;;;5008690;28;20022;-74
2022/09/20 11:25:53;;;;;;;4.93;0.20;;;16.30;99.90;;;;;;5007754;28;20029;-73
2022/09/20 11:28:26;;;;;;;3.28;0.20;;;16.10;99.90;;;;;;5007434;28;20022;-74
2022/09/20 11:30:55;;;;;;;5.03;0.20;;;16.00;99.90;;;;;;5011229;28;20061;-74
2022/09/20 11:33:30;;;;;;;3.30;0.20;;;16.00;99.90;;;;;;5009684;28;20042;-74
2022/09/20 11:36:03;;;;;;;3.40;0.20;;;16.10;99.90;;;;;;5010059;28;20026;-74
2022/09/20 11:38:48;;;;;;;5.72;0.50;;;16.00;99.90;;;;;;5009681;28;20060;-74
2022/09/20 11:41:24;;;;;;;6.43;0.38;;;16.00;99.90;;;;;;5008776;28;20113;-74
2022/09/20 11:43:51;;;;;;;5.38;0.20;;;16.00;99.90;;;;;;5008373;28;20068;-75
2022/09/20 11:46:26;;;;;;;3.05;0.13;;;16.00;99.90;;;;;;5011127;28;20104;-73
2022/09/20 11:49:01;;;;;;;5.85;0.45;;;16.10;99.90;;;;;;5009631;28;20022;-73
2022/09/20 11:51:42;;;;;;;3.28;0.45;;;16.10;99.90;;;;;;5011710;28;20096;-73
2022/09/20 11:54:22;;;;;;;3.85;0.15;;;16.30;99.90;;;;;;5009879;28;20036;-73
2022/09/20 11:56:55;;;;;;;3.45;0.20;;;16.40;99.90;;;;;;5010408;28;20022;-73
2022/09/20 11:59:24;;;;;;;5.15;0.30;;;16.60;99.90;;;;;;5010121;28;20022;-73
2022/09/20 12:01:55;;;;;;;2.95;0.10;;;16.60;99.90;;;;;;5007252;28;20022;-73
2022/09/20 12:04:29;;;;;;;3.05;0.10;;;16.80;99.90;;;;;;4993976;28;20081;-74
2022/09/20 12:07:13;;;;;;;1.75;0.20;;;17.10;99.90;;;;;;5002163;28;20025;-74
2022/09/20 12:09:41;;;;;;;4.07;0.17;;;17.30;99.90;;;;;;5007163;28;20030;-74
2022/09/20 12:12:43;;;;;;;2.08;0.10;;;17.50;99.70;;;;;;5008545;28;20320;-74
2022/09/20 12:15:34;;;;;;;4.40;0.20;;;17.70;99.30;;;;;;5011148;28;20022;-74
2022/09/20 12:18:02;;;;;;;2.63;0.22;;;17.80;98.70;;;;;;5022509;28;20030;-75
2022/09/20 12:20:34;;;;;;;5.22;0.30;;;17.70;98.40;;;;;;5010981;28;20017;-75
2022/09/20 12:23:57;;;;;;;5.30;0.10;;;17.70;98.30;;;;;;5012724;28;20073;-75
2022/09/20 12:26:37;;;;;;;2.67;0.13;;;17.70;98.20;;;;;;5014416;28;20088;-75
2022/09/20 12:29:40;;;;;;;6.25;0.28;;;17.80;98.20;;;;;;5012256;28;20033;-75
2022/09/20 12:32:30;;;;;;;5.18;0.20;;;17.80;97.60;;;;;;5013055;28;20125;-75
2022/09/20 12:34:56;;;;;;;2.33;0.20;;;17.80;97.60;;;;;;5001008;28;20022;-75
2022/09/20 12:37:24;;;;;;;3.08;0.20;;;17.80;97.70;;;;;;5014250;28;20026;-75
2022/09/20 12:39:54;;;;;;;3.78;0.20;;;17.80;97.40;;;;;;5014841;28;20026;-75
2022/09/20 12:42:31;;;;;;;1.88;0.10;;;17.80;96.80;;;;;;5009659;28;20038;-75
2022/09/20 12:45:14;;;;;;;1.45;0.10;;;17.80;96.60;;;;;;5013532;28;20405;-76
2022/09/20 12:47:52;;;;;;;5.75;0.20;;;17.70;96.50;;;;;;5013377;28;20501;-75
2022/09/20 12:53:12;;;;;;;5.10;0.30;;;17.80;96.30;;;;;;5012444;28;20167;-75
2022/09/20 12:55:48;;;;;;;1.42;0.13;;;17.80;95.90;;;;;;5012560;28;20092;-75
2022/09/20 12:58:22;;;;;;;2.88;0.20;;;17.90;95.50;;;;;;5008392;28;20038;-75
2022/09/20 13:00:59;;;;;;;2.60;0.10;;;17.90;94.90;;;;;;5003216;28;20022;-75
2022/09/20 13:03:33;;;;;;;3.08;0.10;;;17.90;94.80;;;;;;5012329;28;20215;-75
2022/09/20 13:06:19;;;;;;;3.15;0.10;;;17.90;94.60;;;;;;5012918;28;20037;-75
2022/09/20 13:08:58;;;;;;;4.03;0.20;;;17.90;94.50;;;;;;5013257;28;20049;-75
2022/09/20 13:11:40;;;;;;;3.63;0.15;;;17.90;94.10;;;;;;5006539;28;20042;-75
2022/09/20 13:14:19;;;;;;;3.45;0.40;;;17.80;94.20;;;;;;5012263;28;20472;-75
2022/09/20 13:16:56;;;;;;;5.07;0.20;;;17.80;94.00;;;;;;5013823;28;20754;-75
2022/09/20 13:19:29;;;;;;;2.30;0.10;;;17.70;93.80;;;;;;5013012;28;20033;-75
2022/09/20 13:22:21;;;;;;;1.60;0.10;;;17.60;94.10;;;;;;5007874;28;20041;-75
2022/09/20 13:24:48;;;;;;;3.80;0.10;;;17.60;94.40;;;;;;5012633;28;20025;-75
2022/09/20 13:27:33;;;;;;;3.15;0.43;;;17.70;94.40;;;;;;5010118;28;20436;-75
2022/09/20 13:30:18;;;;;;;2.83;0.20;;;17.80;94.90;;;;;;4999911;28;20129;-75
2022/09/20 13:32:44;;;;;;;2.03;0.50;;;17.90;94.10;;;;;;5001614;28;20042;-75
2022/09/20 13:35:14;;;;;;;0.95;0.28;;;17.80;94.00;;;;;;5012259;28;20026;-75
2022/09/20 13:37:49;;;;;;;2.67;0.20;;;17.80;93.90;;;;;;5011209;28;20034;-75
2022/09/20 13:40:20;;;;;;;2.10;0.20;;;17.70;94.00;;;;;;5010080;28;20552;-75
2022/09/20 13:42:48;;;;;;;2.88;0.10;;;17.80;94.40;;;;;;5012949;28;20026;-75
2022/09/20 13:45:16;;;;;;;2.13;0.20;;;17.70;94.30;;;;;;5003002;28;20403;-75
2022/09/20 13:47:46;;;;;;;1.75;0.20;;;17.80;94.40;;;;;;5008648;28;20041;-75
2022/09/20 13:50:17;;;;;;;4.70;0.20;;;17.90;94.60;;;;;;5012262;28;20026;-75
2022/09/20 13:52:45;;;;;;;1.23;0.10;;;17.90;94.40;;;;;;5013087;28;20052;-75
2022/09/20 13:55:34;;;;;;;2.38;0.13;;;18.00;94.40;;;;;;5010599;28;20084;-75
2022/09/20 13:58:30;;;;;;;7.40;0.60;;;18.00;94.50;;;;;;5007773;28;20363;-75
2022/09/20 14:01:05;;;;;;;3.42;0.20;;;18.10;94.60;;;;;;5012551;28;20018;-75
2022/09/20 14:03:33;;;;;;;4.15;0.25;;;18.10;94.50;;;;;;5012912;28;20513;-75